North River — WYR2549 — position and weather

sailwx.info

Track history (hours):
 
Tides and Currents Weather Stations Pressure Air Temp Water Temp Dewpoint Dewpoint Depression Visibility Wind Speed Wind Dir Waves Ship Positions

North River

More information available from US FCC via Universal Licensing System and Coast Guard Vessel Documentation Center.

Last reported at 2014-Sep-11 21:06 UTC. Time now 2014-Sep-20 17:57 UTC.
Position N 40°48' W 073°55'.
Warning: this ship's position is 8 days out of date.

Length 78 m.

Type: Tanker. MMSI: 367074110.

Date/timePositionNaut miles runAvg speedWind from/ knotsBaromVisibWave heightAir tempDewpointWater temp
2014-Sep-11 21:06N 40°48' W 073°55'0 0.2
2014-Sep-11 18:23N 40°47' W 073°55'5 5.6
2014-Sep-11 17:33N 40°43' W 073°58'6 5.9
2014-Sep-11 16:31N 40°48' W 073°53'0 0.0
2014-Sep-11 15:33N 40°48' W 073°53'0 0.0
2014-Sep-11 14:33N 40°48' W 073°53'2 1.8
2014-Sep-11 13:22N 40°48' W 073°50'0 0.0
2014-Sep-11 12:26N 40°48' W 073°50'2 2.8
2014-Sep-11 11:33N 40°48' W 073°54'1 0.1
2014-Sep-10 21:33N 40°48' W 073°55'1111.2
2014-Sep-10 20:33N 40°38' W 074°03'8 8.4
2014-Sep-10 19:33N 40°35' W 073°52'3 3.4
2014-Sep-10 18:33N 40°38' W 073°52'0 0.0
2014-Sep-10 17:33N 40°38' W 073°52'1 1.3
2014-Sep-10 16:33N 40°37' W 073°53'3 3.3
2014-Sep-10 15:31N 40°35' W 073°50'0 0.0
2014-Sep-10 14:33N 40°35' W 073°50'6 6.5
2014-Sep-10 13:34N 40°34' W 073°58'8 7.6
2014-Sep-10 12:33N 40°41' W 074°01'8 8.4
2014-Sep-10 11:33N 40°48' W 073°54'1 0.1
2014-Sep-09 23:18N 40°47' W 073°54'0 0.0
2014-Sep-09 22:33N 40°47' W 073°54'1 1.0
2014-Sep-09 21:33N 40°48' W 073°54'7 6.4
2014-Sep-09 20:32N 40°45' W 074°01'1 0.3
2014-Sep-09 17:33N 40°44' W 074°01'8 7.5
2014-Sep-09 16:33N 40°48' W 073°53'0 0.0
2014-Sep-09 15:33N 40°48' W 073°53'0 0.0
2014-Sep-09 14:33N 40°48' W 073°53'2 1.0
2014-Sep-09 12:24N 40°48' W 073°50'3 3.1
2014-Sep-09 11:33N 40°47' W 073°53'  
2014-Sep-04 21:26N 40°47' W 073°55'5 6.3
2014-Sep-04 20:33N 40°44' W 074°01'7 2.8
2014-Sep-04 18:15N 40°50' W 073°58'912.8
2014-Sep-04 17:33N 40°41' W 074°02'5 4.7
2014-Sep-04 16:27N 40°38' W 074°08'0 0.0
2014-Sep-04 15:26N 40°38' W 074°08'8 8.9
2014-Sep-04 14:34N 40°43' W 073°59'8 8.3
2014-Sep-04 13:33N 40°48' W 073°50'0 0.0
2014-Sep-04 12:33N 40°48' W 073°50'1 0.8
2014-Sep-04 11:33N 40°48' W 073°51'2 1.9
2014-Sep-04 10:33N 40°47' W 073°54'0 0.0
2014-Sep-04 09:33N 40°47' W 073°54'0 0.0
2014-Sep-04 08:33N 40°47' W 073°54'0 0.0
2014-Sep-04 07:33N 40°47' W 073°54'0 0.0
2014-Sep-04 06:33N 40°47' W 073°54'0 0.0
2014-Sep-04 05:33N 40°47' W 073°54'0 0.0
2014-Sep-04 04:33N 40°47' W 073°54'0 0.0
2014-Sep-04 03:33N 40°47' W 073°54'0 0.0
2014-Sep-04 02:20N 40°47' W 073°54'0 0.0
2014-Sep-04 01:30N 40°47' W 073°54'2 1.0
2014-Sep-03 23:33N 40°47' W 073°56'1010.2
2014-Sep-03 22:33N 40°39' W 074°05'4 4.1
2014-Sep-03 21:33N 40°43' W 074°07'0 0.0
2014-Sep-03 20:33N 40°43' W 074°07'0 0.0
2014-Sep-03 19:33N 40°43' W 074°07'4 4.1
2014-Sep-03 18:34N 40°39' W 074°06'5 0.9
2014-Sep-03 12:33N 40°43' W 074°01'7 7.3
2014-Sep-03 11:33N 40°47' W 073°54'0 0.0
2014-Sep-02 23:17N 40°47' W 073°53'3 4.6
2014-Sep-02 22:33N 40°45' W 073°57'2 0.7
2014-Sep-02 19:11N 40°46' W 074°00'2 3.9
2014-Sep-02 18:33N 40°44' W 073°58'5 5.3
2014-Sep-02 17:33N 40°48' W 073°53'0 0.0
2014-Sep-02 16:32N 40°48' W 073°53'1 0.8
2014-Sep-02 15:31N 40°48' W 073°52'1 0.5
2014-Sep-02 13:04N 40°48' W 073°50'3 4.9
2014-Sep-02 12:32N 40°47' W 073°54'0 0.0
2014-Sep-02 11:19N 40°47' W 073°54'  
Track history (hours):
 
Tides and Currents Weather Stations Pressure Air Temp Water Temp Dewpoint Dewpoint Depression Visibility Wind Speed Wind Dir Waves Ship Positions

North River

More information available from US FCC via Universal Licensing System and Coast Guard Vessel Documentation Center.

Last reported at 2014-Sep-11 21:06 UTC. Time now 2014-Sep-20 17:57 UTC.
Position N 40°48' W 073°55'.
Warning: this ship's position is 8 days out of date.

Length 78 m.

Type: Tanker. MMSI: 367074110.

Date/timePositionNaut miles runAvg speedWind from/ knotsBaromVisibWave heightAir tempDewpointWater temp
2014-Sep-11 21:06N 40°48' W 073°55'0 0.2
2014-Sep-11 18:23N 40°47' W 073°55'5 5.6
2014-Sep-11 17:33N 40°43' W 073°58'6 5.9
2014-Sep-11 16:31N 40°48' W 073°53'0 0.0
2014-Sep-11 15:33N 40°48' W 073°53'0 0.0
2014-Sep-11 14:33N 40°48' W 073°53'2 1.8
2014-Sep-11 13:22N 40°48' W 073°50'0 0.0
2014-Sep-11 12:26N 40°48' W 073°50'2 2.8
2014-Sep-11 11:33N 40°48' W 073°54'1 0.1
2014-Sep-10 21:33N 40°48' W 073°55'1111.2
2014-Sep-10 20:33N 40°38' W 074°03'8 8.4
2014-Sep-10 19:33N 40°35' W 073°52'3 3.4
2014-Sep-10 18:33N 40°38' W 073°52'0 0.0
2014-Sep-10 17:33N 40°38' W 073°52'1 1.3
2014-Sep-10 16:33N 40°37' W 073°53'3 3.3
2014-Sep-10 15:31N 40°35' W 073°50'0 0.0
2014-Sep-10 14:33N 40°35' W 073°50'6 6.5
2014-Sep-10 13:34N 40°34' W 073°58'8 7.6
2014-Sep-10 12:33N 40°41' W 074°01'8 8.4
2014-Sep-10 11:33N 40°48' W 073°54'1 0.1
2014-Sep-09 23:18N 40°47' W 073°54'0 0.0
2014-Sep-09 22:33N 40°47' W 073°54'1 1.0
2014-Sep-09 21:33N 40°48' W 073°54'7 6.4
2014-Sep-09 20:32N 40°45' W 074°01'1 0.3
2014-Sep-09 17:33N 40°44' W 074°01'8 7.5
2014-Sep-09 16:33N 40°48' W 073°53'0 0.0
2014-Sep-09 15:33N 40°48' W 073°53'0 0.0
2014-Sep-09 14:33N 40°48' W 073°53'2 1.0
2014-Sep-09 12:24N 40°48' W 073°50'3 3.1
2014-Sep-09 11:33N 40°47' W 073°53'  
2014-Sep-04 21:26N 40°47' W 073°55'5 6.3
2014-Sep-04 20:33N 40°44' W 074°01'7 2.8
2014-Sep-04 18:15N 40°50' W 073°58'912.8
2014-Sep-04 17:33N 40°41' W 074°02'5 4.7
2014-Sep-04 16:27N 40°38' W 074°08'0 0.0
2014-Sep-04 15:26N 40°38' W 074°08'8 8.9
2014-Sep-04 14:34N 40°43' W 073°59'8 8.3
2014-Sep-04 13:33N 40°48' W 073°50'0 0.0
2014-Sep-04 12:33N 40°48' W 073°50'1 0.8
2014-Sep-04 11:33N 40°48' W 073°51'2 1.9
2014-Sep-04 10:33N 40°47' W 073°54'0 0.0
2014-Sep-04 09:33N 40°47' W 073°54'0 0.0
2014-Sep-04 08:33N 40°47' W 073°54'0 0.0
2014-Sep-04 07:33N 40°47' W 073°54'0 0.0
2014-Sep-04 06:33N 40°47' W 073°54'0 0.0
2014-Sep-04 05:33N 40°47' W 073°54'0 0.0
2014-Sep-04 04:33N 40°47' W 073°54'0 0.0
2014-Sep-04 03:33N 40°47' W 073°54'0 0.0
2014-Sep-04 02:20N 40°47' W 073°54'0 0.0
2014-Sep-04 01:30N 40°47' W 073°54'2 1.0
2014-Sep-03 23:33N 40°47' W 073°56'1010.2
2014-Sep-03 22:33N 40°39' W 074°05'4 4.1
2014-Sep-03 21:33N 40°43' W 074°07'0 0.0
2014-Sep-03 20:33N 40°43' W 074°07'0 0.0
2014-Sep-03 19:33N 40°43' W 074°07'4 4.1
2014-Sep-03 18:34N 40°39' W 074°06'5 0.9
2014-Sep-03 12:33N 40°43' W 074°01'7 7.3
2014-Sep-03 11:33N 40°47' W 073°54'0 0.0
2014-Sep-02 23:17N 40°47' W 073°53'3 4.6
2014-Sep-02 22:33N 40°45' W 073°57'2 0.7
2014-Sep-02 19:11N 40°46' W 074°00'2 3.9
2014-Sep-02 18:33N 40°44' W 073°58'5 5.3
2014-Sep-02 17:33N 40°48' W 073°53'0 0.0
2014-Sep-02 16:32N 40°48' W 073°53'1 0.8
2014-Sep-02 15:31N 40°48' W 073°52'1 0.5
2014-Sep-02 13:04N 40°48' W 073°50'3 4.9
2014-Sep-02 12:32N 40°47' W 073°54'0 0.0
2014-Sep-02 11:19N 40°47' W 073°54'  

Dump ship's entire track history